createdAt,value
2022-07-29T00:01:51.106Z,32.09
2022-07-29T00:04:18.225Z,32.10
2022-07-29T00:06:44.926Z,32.10
2022-07-29T00:09:11.367Z,32.02
2022-07-29T00:11:37.969Z,32.17
2022-07-29T00:14:04.347Z,32.19
2022-07-29T00:16:30.971Z,31.71
2022-07-29T00:19:01.816Z,31.38
2022-07-29T00:21:28.681Z,32.56
2022-07-29T00:23:55.112Z,31.53
2022-07-29T00:26:21.880Z,32.54
2022-07-29T00:28:48.280Z,32.79
2022-07-29T00:31:14.775Z,32.92
2022-07-29T00:33:41.760Z,32.85
2022-07-29T00:36:08.724Z,33.03
2022-07-29T00:38:35.362Z,33.18
2022-07-29T00:41:01.976Z,33.01
2022-07-29T00:43:28.409Z,33.17
2022-07-29T00:45:54.840Z,33.37
2022-07-29T00:48:21.290Z,32.66
2022-07-29T00:50:47.717Z,33.44
2022-07-29T00:53:14.116Z,33.27
2022-07-29T00:55:40.732Z,33.63
2022-07-29T00:58:07.150Z,33.83
2022-07-29T01:00:34.044Z,34.06
2022-07-29T01:03:00.648Z,33.88
2022-07-29T01:05:50.788Z,33.54
2022-07-29T01:08:15.074Z,34.02
2022-07-29T01:10:41.594Z,33.82
2022-07-29T01:13:08.538Z,33.92
2022-07-29T01:15:35.110Z,34.01
2022-07-29T01:18:03.591Z,34.31
2022-07-29T01:20:32.765Z,34.24
2022-07-29T01:22:59.782Z,34.22
2022-07-29T01:25:26.265Z,34.53
2022-07-29T01:27:54.757Z,34.34
2022-07-29T01:30:22.032Z,34.19
2022-07-29T01:32:50.465Z,34.49
2022-07-29T01:35:16.885Z,33.81
2022-07-29T01:37:43.491Z,34.54
2022-07-29T01:40:10.167Z,34.83
2022-07-29T01:42:36.582Z,34.64
2022-07-29T01:45:03.143Z,34.80
2022-07-29T01:47:29.723Z,34.56
2022-07-29T01:49:56.146Z,34.47
2022-07-29T01:52:22.720Z,34.92
2022-07-29T01:54:49.110Z,34.98
2022-07-29T01:57:15.567Z,34.95
2022-07-29T01:59:42.454Z,35.10
2022-07-29T02:02:08.952Z,35.35
2022-07-29T02:04:35.452Z,35.06
2022-07-29T02:07:02.431Z,35.22
2022-07-29T02:09:29.208Z,35.31
2022-07-29T02:11:55.629Z,35.14
2022-07-29T02:14:22.613Z,35.72
2022-07-29T02:16:49.113Z,35.68
2022-07-29T02:19:15.607Z,36.02
2022-07-29T02:21:42.039Z,35.89
2022-07-29T02:24:08.455Z,35.80
2022-07-29T02:26:34.927Z,35.65
2022-07-29T02:29:01.435Z,35.89
2022-07-29T02:31:28.060Z,35.80
2022-07-29T02:33:54.673Z,35.71
2022-07-29T02:36:21.348Z,35.87
2022-07-29T02:38:47.735Z,36.06
2022-07-29T02:41:14.126Z,35.71
2022-07-29T02:43:40.829Z,35.96
2022-07-29T02:46:12.782Z,35.97
2022-07-29T02:48:53.748Z,35.96
2022-07-29T02:51:43.449Z,36.27
2022-07-29T02:54:08.821Z,36.28
2022-07-29T02:56:35.227Z,36.33
2022-07-29T02:59:01.622Z,36.06
2022-07-29T03:01:28.728Z,36.55
2022-07-29T03:03:55.187Z,36.57
2022-07-29T03:06:31.379Z,36.43
2022-07-29T03:09:10.496Z,36.63
2022-07-29T03:11:50.063Z,36.68
2022-07-29T03:14:17.629Z,36.58
2022-07-29T03:16:44.439Z,36.35
2022-07-29T03:19:10.851Z,36.57
2022-07-29T03:21:37.607Z,36.66
2022-07-29T03:24:09.791Z,36.19
2022-07-29T03:26:36.880Z,37.28
2022-07-29T03:29:09.336Z,37.48
2022-07-29T03:31:39.940Z,37.49
2022-07-29T03:34:10.311Z,37.69
2022-07-29T03:36:36.744Z,37.38
2022-07-29T03:39:03.178Z,37.45
2022-07-29T03:41:29.751Z,37.79
2022-07-29T03:43:56.203Z,38.71
2022-07-29T03:46:22.655Z,38.38
2022-07-29T03:48:49.182Z,38.50
2022-07-29T03:51:15.668Z,38.73
2022-07-29T03:53:42.123Z,37.85
2022-07-29T03:56:08.763Z,38.06
2022-07-29T03:58:35.409Z,38.42
2022-07-29T04:01:01.838Z,38.65
2022-07-29T04:03:28.942Z,38.18
2022-07-29T04:05:55.396Z,38.07
2022-07-29T04:08:21.787Z,38.64
2022-07-29T04:10:48.797Z,38.10
2022-07-29T04:13:15.187Z,38.20
2022-07-29T04:15:41.727Z,38.34
2022-07-29T04:18:08.194Z,38.30
2022-07-29T04:20:34.659Z,39.25
2022-07-29T04:23:01.416Z,39.99
2022-07-29T04:25:27.973Z,39.84
2022-07-29T04:27:54.380Z,39.04
2022-07-29T04:30:20.783Z,40.64
2022-07-29T04:32:47.547Z,39.77
2022-07-29T04:35:13.936Z,39.55
2022-07-29T04:37:40.349Z,39.19
2022-07-29T04:40:11.631Z,38.74
2022-07-29T04:42:46.245Z,39.52
2022-07-29T04:45:13.866Z,39.35
2022-07-29T04:47:40.655Z,39.01
2022-07-29T04:50:07.329Z,38.79
2022-07-29T04:52:34.038Z,39.17
2022-07-29T04:55:00.693Z,39.65
2022-07-29T04:57:27.151Z,39.55
2022-07-29T04:59:53.636Z,38.93
2022-07-29T05:02:20.078Z,38.51
2022-07-29T05:04:46.512Z,37.92
2022-07-29T05:07:13.133Z,37.62
2022-07-29T05:09:39.557Z,37.37
2022-07-29T05:12:06.015Z,36.44
2022-07-29T05:14:32.651Z,36.87
2022-07-29T05:16:59.037Z,36.75
2022-07-29T05:19:25.445Z,36.43
2022-07-29T05:21:51.912Z,36.30
2022-07-29T05:24:18.697Z,36.05
2022-07-29T05:26:45.342Z,35.63
2022-07-29T05:29:44.964Z,35.35
2022-07-29T05:31:58.126Z,35.35
2022-07-29T05:34:24.618Z,34.24
2022-07-29T05:36:51.023Z,35.53
2022-07-29T05:39:17.399Z,35.32
2022-07-29T05:41:48.841Z,35.15
2022-07-29T05:44:18.497Z,35.02
2022-07-29T05:46:45.108Z,35.04
2022-07-29T05:49:12.292Z,34.80
2022-07-29T05:51:53.792Z,34.81
2022-07-29T05:54:20.413Z,34.98
2022-07-29T05:56:46.818Z,34.80
2022-07-29T05:59:17.952Z,34.57
2022-07-29T06:01:44.812Z,34.56
2022-07-29T06:04:11.396Z,34.41
2022-07-29T06:06:37.893Z,34.55
2022-07-29T06:09:12.197Z,34.08
2022-07-29T06:11:39.138Z,33.97
2022-07-29T06:14:05.639Z,33.61
2022-07-29T06:16:32.114Z,33.89
2022-07-29T06:18:58.533Z,34.22
2022-07-29T06:21:25.205Z,34.40
2022-07-29T06:23:51.592Z,34.26
2022-07-29T06:26:18.000Z,34.10
2022-07-29T06:28:44.485Z,33.40
2022-07-29T06:31:10.980Z,34.33
2022-07-29T06:33:37.471Z,34.13
2022-07-29T06:36:03.975Z,34.02
2022-07-29T06:38:34.316Z,34.20
2022-07-29T06:41:06.721Z,34.29
2022-07-29T06:43:33.121Z,34.46
2022-07-29T06:45:59.557Z,34.52
2022-07-29T06:48:26.200Z,34.31
2022-07-29T06:50:52.608Z,34.27
2022-07-29T06:53:19.077Z,34.75
2022-07-29T06:55:48.673Z,33.93
2022-07-29T06:58:15.067Z,34.77
2022-07-29T07:00:41.541Z,34.84
2022-07-29T07:03:08.158Z,35.17
2022-07-29T07:05:34.627Z,34.81
2022-07-29T07:08:01.080Z,35.17
2022-07-29T07:10:27.483Z,35.03
2022-07-29T07:12:53.873Z,35.31
2022-07-29T07:15:20.302Z,34.95
2022-07-29T07:17:46.827Z,35.11
2022-07-29T07:20:13.340Z,35.04
2022-07-29T07:22:39.773Z,35.32
2022-07-29T07:25:06.201Z,35.21
2022-07-29T07:27:32.613Z,35.06
2022-07-29T07:29:59.107Z,35.07
2022-07-29T07:32:26.129Z,35.09
2022-07-29T07:34:52.616Z,35.15
2022-07-29T07:37:19.050Z,34.71
2022-07-29T07:39:45.576Z,34.98
2022-07-29T07:42:11.978Z,35.26
2022-07-29T07:44:51.501Z,35.22
2022-07-29T07:47:24.803Z,34.58
2022-07-29T07:49:54.470Z,34.43
2022-07-29T07:52:20.909Z,34.92
2022-07-29T07:54:47.352Z,34.92
2022-07-29T07:57:13.747Z,34.79
2022-07-29T07:59:40.193Z,35.03
2022-07-29T08:02:06.839Z,35.29
2022-07-29T08:04:33.321Z,35.32
2022-07-29T08:06:59.732Z,34.79
2022-07-29T08:09:29.895Z,35.43
2022-07-29T08:11:56.826Z,35.04
2022-07-29T08:14:23.319Z,35.26
2022-07-29T08:16:50.114Z,35.15
2022-07-29T08:19:16.551Z,35.18
2022-07-29T08:21:42.982Z,35.24
2022-07-29T08:24:09.447Z,35.38
2022-07-29T08:26:35.802Z,35.23
2022-07-29T08:29:02.171Z,35.59
2022-07-29T08:31:28.961Z,35.45
2022-07-29T08:33:55.418Z,35.37
2022-07-29T08:36:21.914Z,35.15
2022-07-29T08:38:48.398Z,35.81
2022-07-29T08:41:14.778Z,35.40
2022-07-29T08:43:41.171Z,35.42
2022-07-29T08:46:08.032Z,35.66
2022-07-29T08:48:34.459Z,35.11
2022-07-29T08:51:00.806Z,34.89
2022-07-29T08:53:28.990Z,34.51
2022-07-29T08:55:55.398Z,33.48
2022-07-29T08:58:23.368Z,35.52
2022-07-29T09:00:51.294Z,36.55
2022-07-29T09:03:17.801Z,36.08
2022-07-29T09:05:47.961Z,35.04
2022-07-29T09:08:14.857Z,35.41
2022-07-29T09:10:41.374Z,36.96
2022-07-29T09:13:07.731Z,36.26
2022-07-29T09:15:34.151Z,35.26
2022-07-29T09:18:00.542Z,35.48
2022-07-29T09:20:26.956Z,35.30
2022-07-29T09:22:53.422Z,36.77
2022-07-29T09:25:19.807Z,36.62
2022-07-29T09:27:46.221Z,36.78
2022-07-29T09:30:12.791Z,35.92
2022-07-29T09:32:39.487Z,35.54
2022-07-29T09:35:09.875Z,35.64
2022-07-29T09:37:36.468Z,36.32
2022-07-29T09:40:02.870Z,35.98
2022-07-29T09:42:29.265Z,35.71
2022-07-29T09:44:55.884Z,35.74
2022-07-29T09:47:22.297Z,34.33
2022-07-29T09:49:48.675Z,33.91
2022-07-29T09:52:17.281Z,33.52
2022-07-29T09:54:43.710Z,33.93
2022-07-29T09:57:10.099Z,35.40
2022-07-29T09:59:37.384Z,34.31
2022-07-29T10:02:21.707Z,34.78
2022-07-29T10:04:48.637Z,34.51
2022-07-29T10:07:15.056Z,35.03
2022-07-29T10:09:41.441Z,35.27
2022-07-29T10:12:07.857Z,35.12
2022-07-29T10:14:34.314Z,34.01
2022-07-29T10:17:00.887Z,33.50
2022-07-29T10:19:27.376Z,33.13
2022-07-29T10:21:57.905Z,32.98
2022-07-29T10:24:24.544Z,33.36
2022-07-29T10:26:50.934Z,31.31
2022-07-29T10:29:17.347Z,32.25
2022-07-29T10:31:43.755Z,32.30
2022-07-29T10:34:10.245Z,31.76
2022-07-29T10:36:38.775Z,31.23
2022-07-29T10:39:05.416Z,31.80
2022-07-29T10:41:43.629Z,33.25
2022-07-29T10:44:22.899Z,32.50
2022-07-29T10:46:50.068Z,31.23
2022-07-29T10:49:16.587Z,32.14
2022-07-29T10:51:44.617Z,33.47
2022-07-29T10:54:11.492Z,32.97
2022-07-29T10:56:37.912Z,31.59
2022-07-29T10:59:04.609Z,31.84
2022-07-29T11:01:37.431Z,35.08
2022-07-29T11:04:05.482Z,34.42
2022-07-29T11:06:34.564Z,33.24
2022-07-29T11:09:01.125Z,33.92
2022-07-29T11:11:29.731Z,34.12
2022-07-29T11:13:57.093Z,34.73
2022-07-29T11:16:25.248Z,36.24
2022-07-29T11:18:51.951Z,38.10
2022-07-29T11:21:23.256Z,37.56
2022-07-29T11:23:50.112Z,37.56
2022-07-29T11:29:02.962Z,37.53
2022-07-29T11:31:29.353Z,36.60
2022-07-29T11:33:56.811Z,36.32
2022-07-29T11:36:28.279Z,35.66
2022-07-29T11:38:54.974Z,36.53
2022-07-29T11:41:21.467Z,35.58
2022-07-29T11:43:48.024Z,35.35
2022-07-29T11:46:17.167Z,36.03
2022-07-29T11:51:38.233Z,35.00
2022-07-29T11:54:15.751Z,33.98
2022-07-29T11:56:42.492Z,35.31
2022-07-29T11:59:09.064Z,36.29
2022-07-29T12:01:38.782Z,36.62
2022-07-29T12:04:06.806Z,37.27
2022-07-29T12:06:33.365Z,36.35
2022-07-29T12:07:02.873Z,36.92
2022-07-29T12:09:00.266Z,35.44
2022-07-29T12:11:26.623Z,34.13
2022-07-29T12:13:53.179Z,34.17
2022-07-29T12:16:25.766Z,33.97
2022-07-29T12:18:55.846Z,33.88
2022-07-29T12:21:25.616Z,32.87
2022-07-29T12:23:52.524Z,34.56
2022-07-29T12:26:21.959Z,33.57
2022-07-29T12:28:52.190Z,32.34
2022-07-29T12:31:43.806Z,32.96
2022-07-29T12:34:07.870Z,31.66
2022-07-29T12:36:34.634Z,30.99
2022-07-29T12:39:01.363Z,29.87
2022-07-29T12:41:27.822Z,32.70
2022-07-29T12:43:54.248Z,33.00
2022-07-29T12:46:20.864Z,33.75
2022-07-29T12:48:47.569Z,33.82
2022-07-29T12:51:14.096Z,35.04
2022-07-29T12:53:40.810Z,35.05
2022-07-29T12:56:26.705Z,33.76
2022-07-29T12:58:54.396Z,34.26
2022-07-29T13:01:20.932Z,33.61
2022-07-29T13:03:57.058Z,34.26
2022-07-29T13:06:24.603Z,35.63
2022-07-29T13:08:51.168Z,36.59
2022-07-29T13:11:17.802Z,37.42
2022-07-29T13:13:44.257Z,37.51
2022-07-29T13:16:10.749Z,38.09
2022-07-29T13:18:37.176Z,38.17
2022-07-29T13:21:03.954Z,37.99
2022-07-29T13:23:30.543Z,40.97
2022-07-29T13:25:59.591Z,40.33
2022-07-29T13:28:28.533Z,41.28
2022-07-29T13:30:55.081Z,40.13
2022-07-29T13:33:21.591Z,38.21
2022-07-29T13:35:48.352Z,36.69
2022-07-29T13:38:14.761Z,38.87
2022-07-29T13:40:41.329Z,37.67
2022-07-29T13:43:07.927Z,38.79
2022-07-29T13:45:34.607Z,37.96
2022-07-29T13:48:01.043Z,39.90
2022-07-29T13:50:28.047Z,39.29
2022-07-29T13:52:54.411Z,40.18
2022-07-29T13:55:20.866Z,41.38
2022-07-29T13:57:47.501Z,40.47
2022-07-29T14:00:14.099Z,40.54
2022-07-29T14:02:40.692Z,40.39
2022-07-29T14:05:08.681Z,40.99
2022-07-29T14:07:35.550Z,39.98
2022-07-29T14:10:01.966Z,41.30
2022-07-29T14:12:28.769Z,40.53
2022-07-29T14:14:55.333Z,40.72
2022-07-29T14:17:21.945Z,41.88
2022-07-29T14:19:48.721Z,41.73
2022-07-29T14:22:15.257Z,43.25
2022-07-29T14:24:42.858Z,44.76
2022-07-29T14:27:09.553Z,46.00
2022-07-29T14:29:37.172Z,47.81
2022-07-29T14:32:04.872Z,46.27
2022-07-29T14:34:31.341Z,47.29
2022-07-29T14:36:57.901Z,46.20
2022-07-29T14:39:24.745Z,45.97
2022-07-29T14:41:58.495Z,46.42
2022-07-29T14:44:25.269Z,46.16
2022-07-29T14:46:52.085Z,46.01
2022-07-29T14:49:18.568Z,46.28
2022-07-29T14:51:44.973Z,47.53
2022-07-29T14:54:11.568Z,48.67
2022-07-29T14:56:46.561Z,48.18
2022-07-29T14:59:14.004Z,47.46
2022-07-29T15:01:40.735Z,47.05
2022-07-29T15:04:07.387Z,46.39
2022-07-29T15:06:33.758Z,47.15
2022-07-29T15:09:00.356Z,48.84
2022-07-29T15:11:26.803Z,48.05
2022-07-29T15:13:53.218Z,47.19
2022-07-29T15:16:19.839Z,47.52
2022-07-29T15:18:46.358Z,47.90
2022-07-29T15:21:12.745Z,47.13
2022-07-29T15:23:39.195Z,46.78
2022-07-29T15:26:05.629Z,46.87
2022-07-29T15:28:32.270Z,47.49
2022-07-29T15:30:58.933Z,46.88
2022-07-29T15:33:25.373Z,47.14
2022-07-29T15:35:51.879Z,47.63
2022-07-29T15:38:18.742Z,46.31
2022-07-29T15:40:45.168Z,46.85
2022-07-29T15:43:11.832Z,46.33
2022-07-29T15:45:40.475Z,45.60
2022-07-29T15:48:07.507Z,46.72
2022-07-29T15:50:33.948Z,45.97
2022-07-29T15:53:00.653Z,46.57
2022-07-29T15:55:27.102Z,46.21
2022-07-29T15:57:57.186Z,46.06
2022-07-29T16:00:26.589Z,45.26
2022-07-29T16:02:53.001Z,45.31
2022-07-29T16:05:19.640Z,45.65
2022-07-29T16:07:46.296Z,44.74
2022-07-29T16:10:12.677Z,45.39
2022-07-29T16:12:39.067Z,44.83
2022-07-29T16:15:09.665Z,44.07
2022-07-29T16:17:36.494Z,45.19
2022-07-29T16:20:02.908Z,44.92
2022-07-29T16:22:29.400Z,45.14
2022-07-29T16:24:55.795Z,45.36
2022-07-29T16:27:22.272Z,45.57
2022-07-29T16:29:48.989Z,45.32
2022-07-29T16:32:15.418Z,44.46
2022-07-29T16:34:50.342Z,43.74
2022-07-29T16:37:16.819Z,43.38
2022-07-29T16:39:43.222Z,43.01
2022-07-29T16:42:17.147Z,42.94
2022-07-29T16:44:52.102Z,42.35
2022-07-29T16:47:18.873Z,42.39
2022-07-29T16:49:46.690Z,42.93
2022-07-29T16:52:13.567Z,42.04
2022-07-29T16:54:40.244Z,42.52
2022-07-29T16:57:06.783Z,42.41
2022-07-29T16:59:33.201Z,41.58
2022-07-29T17:02:10.204Z,41.19
2022-07-29T17:04:36.672Z,41.59
2022-07-29T17:07:03.087Z,42.03
2022-07-29T17:09:29.994Z,41.61
2022-07-29T17:11:56.493Z,42.57
2022-07-29T17:14:23.353Z,42.02
2022-07-29T17:17:02.901Z,42.10
2022-07-29T17:19:29.882Z,41.14
2022-07-29T17:22:04.650Z,41.18
2022-07-29T17:24:35.553Z,41.82
2022-07-29T17:27:02.176Z,42.20
2022-07-29T17:29:28.782Z,41.98
2022-07-29T17:31:55.188Z,41.94
2022-07-29T17:34:21.678Z,41.98
2022-07-29T17:36:48.660Z,41.80
2022-07-29T17:39:15.488Z,42.23
2022-07-29T17:41:42.188Z,42.35
2022-07-29T17:44:08.688Z,42.43
2022-07-29T17:46:35.156Z,42.27
2022-07-29T17:49:01.869Z,42.22
2022-07-29T17:51:28.269Z,42.44
2022-07-29T17:53:54.682Z,42.40
2022-07-29T17:56:25.735Z,42.91
2022-07-29T17:58:52.229Z,42.55
2022-07-29T18:01:18.831Z,42.70
2022-07-29T18:03:45.854Z,42.71
2022-07-29T18:06:12.282Z,42.70
2022-07-29T18:08:38.726Z,42.73
2022-07-29T18:11:05.599Z,43.03
2022-07-29T18:13:32.007Z,43.43
2022-07-29T18:16:00.534Z,44.17
2022-07-29T18:18:27.643Z,44.22
2022-07-29T18:20:54.106Z,44.01
2022-07-29T18:23:20.562Z,44.32
2022-07-29T18:25:47.007Z,44.49
2022-07-29T18:28:13.563Z,45.20
2022-07-29T18:30:39.953Z,45.17
2022-07-29T18:33:22.681Z,45.08
2022-07-29T18:35:49.443Z,45.44
2022-07-29T18:38:16.038Z,45.21
2022-07-29T18:40:42.450Z,44.76
2022-07-29T18:43:08.862Z,44.88
2022-07-29T18:45:35.590Z,45.30
2022-07-29T18:48:06.050Z,44.74
2022-07-29T18:50:32.501Z,44.98
2022-07-29T18:52:59.122Z,44.93
2022-07-29T18:55:25.536Z,45.05
2022-07-29T18:57:54.409Z,44.75
2022-07-29T19:00:22.949Z,45.23
2022-07-29T19:02:50.209Z,45.07
2022-07-29T19:05:16.754Z,45.67
2022-07-29T19:07:43.477Z,45.29
2022-07-29T19:10:09.948Z,45.74
2022-07-29T19:12:36.410Z,45.42
2022-07-29T19:15:02.969Z,45.38
2022-07-29T19:17:29.390Z,45.69
2022-07-29T19:19:55.797Z,45.88
2022-07-29T19:22:22.318Z,45.67
2022-07-29T19:24:48.724Z,45.93
2022-07-29T19:27:15.114Z,46.59
2022-07-29T19:29:42.264Z,48.11
2022-07-29T19:32:08.722Z,48.76
2022-07-29T19:34:35.436Z,49.06
2022-07-29T19:37:02.461Z,48.02
2022-07-29T19:39:35.285Z,47.39
2022-07-29T19:42:03.370Z,47.18
2022-07-29T19:44:30.197Z,47.11
2022-07-29T19:46:56.930Z,46.63
2022-07-29T19:49:23.846Z,46.78
2022-07-29T19:51:50.314Z,46.22
2022-07-29T19:54:19.878Z,46.87
2022-07-29T19:56:47.210Z,46.84
2022-07-29T19:59:13.638Z,46.33
2022-07-29T20:01:40.580Z,45.98
2022-07-29T20:04:07.113Z,45.82
2022-07-29T20:06:33.575Z,47.35
2022-07-29T20:09:00.155Z,48.57
2022-07-29T20:11:26.626Z,48.20
2022-07-29T20:13:53.029Z,48.66
2022-07-29T20:16:19.610Z,49.06
2022-07-29T20:18:46.308Z,48.66
2022-07-29T20:21:13.337Z,49.44
2022-07-29T20:23:39.761Z,49.73
2022-07-29T20:26:09.430Z,50.18
2022-07-29T20:28:36.358Z,49.86
2022-07-29T20:31:02.805Z,48.74
2022-07-29T20:33:29.515Z,48.29
2022-07-29T20:35:55.898Z,47.92
2022-07-29T20:38:22.290Z,48.29
2022-07-29T20:40:48.757Z,50.38
2022-07-29T20:43:15.145Z,50.37
2022-07-29T20:45:41.671Z,49.85
2022-07-29T20:48:08.556Z,49.52
2022-07-29T20:50:35.050Z,49.00
2022-07-29T20:53:01.608Z,49.43
2022-07-29T20:55:28.274Z,49.96
2022-07-29T20:57:54.663Z,49.43
2022-07-29T21:00:21.048Z,49.98
2022-07-29T21:02:48.210Z,48.93
2022-07-29T21:05:14.790Z,48.84
2022-07-29T21:07:41.208Z,49.00
2022-07-29T21:10:07.692Z,48.62
2022-07-29T21:12:34.230Z,48.48
2022-07-29T21:15:00.661Z,48.94
2022-07-29T21:17:27.618Z,48.54
2022-07-29T21:19:54.050Z,48.88
2022-07-29T21:22:20.604Z,48.43
2022-07-29T21:24:47.151Z,47.89
2022-07-29T21:27:20.663Z,47.86
2022-07-29T21:29:48.362Z,49.20
2022-07-29T21:32:14.776Z,50.39
2022-07-29T21:34:56.203Z,50.62
2022-07-29T21:37:22.648Z,50.02
2022-07-29T21:39:49.070Z,49.45
2022-07-29T21:42:15.531Z,48.63
2022-07-29T21:44:42.111Z,48.25
2022-07-29T21:47:08.532Z,49.25
2022-07-29T21:49:35.072Z,50.01
2022-07-29T21:52:01.646Z,49.27
2022-07-29T21:54:28.330Z,49.05
2022-07-29T21:56:55.087Z,48.72
2022-07-29T21:59:23.684Z,49.22
2022-07-29T22:01:50.143Z,49.09
2022-07-29T22:04:16.795Z,48.74
2022-07-29T22:06:43.320Z,48.84
2022-07-29T22:09:09.707Z,49.18
2022-07-29T22:11:36.321Z,50.98
2022-07-29T22:14:02.759Z,51.64
2022-07-29T22:16:29.193Z,51.29
2022-07-29T22:18:56.026Z,51.73
2022-07-29T22:21:22.460Z,51.28
2022-07-29T22:23:48.838Z,50.00
2022-07-29T22:26:15.311Z,49.80
2022-07-29T22:28:41.725Z,49.53
2022-07-29T22:31:08.213Z,49.00
2022-07-29T22:33:34.879Z,48.84
2022-07-29T22:36:01.480Z,49.02
2022-07-29T22:38:27.902Z,49.66
2022-07-29T22:40:54.461Z,49.34
2022-07-29T22:43:27.063Z,48.26
2022-07-29T22:45:53.516Z,48.50
2022-07-29T22:48:20.325Z,48.46
2022-07-29T22:50:46.708Z,48.48
2022-07-29T22:53:13.099Z,48.55
2022-07-29T22:55:39.903Z,49.26
2022-07-29T22:58:06.295Z,49.80
2022-07-29T23:00:32.696Z,49.65
2022-07-29T23:02:59.278Z,48.89
2022-07-29T23:05:25.714Z,48.46
2022-07-29T23:07:52.153Z,49.32
2022-07-29T23:10:18.551Z,49.42
2022-07-29T23:12:44.915Z,48.82
2022-07-29T23:15:11.295Z,49.79
2022-07-29T23:17:37.756Z,50.23
2022-07-29T23:20:04.145Z,49.85
2022-07-29T23:22:30.572Z,49.51
2022-07-29T23:24:57.087Z,49.53
2022-07-29T23:27:23.499Z,50.31
2022-07-29T23:29:50.056Z,50.16
2022-07-29T23:32:16.631Z,49.19
2022-07-29T23:34:43.028Z,51.51
2022-07-29T23:37:09.513Z,50.30
2022-07-29T23:39:36.077Z,50.29
2022-07-29T23:42:02.452Z,51.50
2022-07-29T23:44:28.862Z,51.86
2022-07-29T23:46:55.848Z,52.44
2022-07-29T23:49:22.517Z,52.09
2022-07-29T23:51:49.030Z,52.86
2022-07-29T23:54:15.658Z,52.67
2022-07-29T23:56:42.080Z,51.76
2022-07-29T23:59:08.516Z,53.67
